El Golea, El Golea Airport (DAUE)

NameEl Golea Airport
CityEl Golea
CountryAlgeria
ICAODAUE
IATAELG
Altitude398 m
CoordinatesGoogle Map
Live Air TrafficLiveATC.net
METARDAUE 160900Z 05004KT CAVOK 11/M01 Q1026
2019-02-16 09:00:00 Wind: Northeast (50°) 2.06 m/s - Visibility: > 10000 m - Weather: CAVOK - Temperature: 11 °C - Dew point: -1 °C - Humidity: 43.6% - Pressure: 1026 hPa

Sorry, no flights used the airport in this database.